Time;durP1;ratioP1;P1;durP2;ratioP2;P2;SDS_P1;SDS_P2;PMS_P1;PMS_P2;Temp;Humidity;BMP_temperature;BMP_pressure;BME280_temperature;BME280_humidity;BME280_pressure;Samples;Min_cycle;Max_cycle;Signal;HPM_P1;HPM_P2
2023/06/09 00:01:00;;;;;;;6.83;5.93;;;17.20;93.90;;;;;;5092085;28;20928;-73
2023/06/09 00:03:28;;;;;;;9.37;7.23;;;17.10;93.60;;;;;;5092639;28;20441;-73
2023/06/09 00:05:56;;;;;;;8.20;7.30;;;17.00;93.60;;;;;;5092394;28;20481;-73
2023/06/09 00:08:23;;;;;;;7.27;6.57;;;16.90;93.90;;;;;;5092496;28;20436;-73
2023/06/09 00:10:51;;;;;;;8.70;7.63;;;16.80;94.10;;;;;;5092615;28;20489;-73
2023/06/09 00:13:18;;;;;;;9.13;7.43;;;16.80;94.20;;;;;;5092372;28;20469;-73
2023/06/09 00:15:45;;;;;;;10.73;7.60;;;16.70;94.20;;;;;;5092252;28;20433;-73
2023/06/09 00:18:15;;;;;;;9.37;7.13;;;16.60;94.60;;;;;;5093077;28;20474;-73
2023/06/09 00:20:42;;;;;;;10.80;8.07;;;16.60;94.90;;;;;;5095746;28;20936;-73
2023/06/09 00:23:15;;;;;;;8.20;6.90;;;16.50;95.00;;;;;;5095685;28;20494;-73
2023/06/09 00:25:42;;;;;;;7.97;7.17;;;16.50;94.90;;;;;;5095829;28;20477;-73
2023/06/09 00:28:09;;;;;;;8.63;7.83;;;16.40;94.80;;;;;;5095460;28;20760;-73
2023/06/09 00:30:36;;;;;;;12.20;8.53;;;16.40;95.20;;;;;;5095826;28;20527;-73
2023/06/09 00:33:03;;;;;;;10.33;7.67;;;16.30;95.50;;;;;;5095395;28;20845;-73
2023/06/09 00:35:31;;;;;;;8.83;6.70;;;16.30;95.70;;;;;;5095528;28;20494;-73
2023/06/09 00:37:58;;;;;;;8.00;7.20;;;16.20;95.70;;;;;;5095490;28;20490;-73
2023/06/09 00:40:26;;;;;;;8.10;7.30;;;16.20;96.00;;;;;;5095625;28;20436;-73
2023/06/09 00:42:56;;;;;;;7.50;6.63;;;16.10;96.30;;;;;;5095312;28;20908;-72
2023/06/09 00:45:23;;;;;;;9.63;7.57;;;16.10;95.80;;;;;;5095257;28;20473;-73
2023/06/09 00:47:51;;;;;;;8.03;6.90;;;16.00;95.70;;;;;;5095229;28;20879;-73
2023/06/09 00:50:20;;;;;;;7.60;6.80;;;16.00;95.90;;;;;;5095123;28;20458;-72
2023/06/09 00:52:51;;;;;;;8.60;7.30;;;16.00;96.20;;;;;;5095287;28;20894;-73
2023/06/09 00:55:19;;;;;;;9.20;7.30;;;15.90;96.00;;;;;;5095163;28;20480;-72
2023/06/09 00:57:55;;;;;;;9.90;8.40;;;15.90;95.80;;;;;;5095661;28;20526;-73
2023/06/09 01:00:26;;;;;;;10.00;8.40;;;15.80;96.00;;;;;;5095184;28;20490;-73
2023/06/09 01:02:53;;;;;;;8.93;8.03;;;15.70;96.70;;;;;;5095181;28;20437;-74
2023/06/09 01:05:20;;;;;;;9.80;8.30;;;15.70;96.90;;;;;;5095038;28;20958;-74
2023/06/09 01:07:55;;;;;;;10.47;7.13;;;15.70;96.80;;;;;;5095276;28;20459;-72
2023/06/09 01:10:28;;;;;;;8.07;7.27;;;15.60;96.70;;;;;;5095103;28;20433;-72
2023/06/09 01:13:04;;;;;;;7.27;6.47;;;15.60;96.50;;;;;;5095102;28;20444;-72
2023/06/09 01:15:35;;;;;;;8.97;7.93;;;15.50;96.40;;;;;;5094865;28;20454;-74
2023/06/09 01:18:05;;;;;;;9.13;8.17;;;15.50;96.70;;;;;;5094676;28;20471;-71
2023/06/09 01:20:39;;;;;;;16.63;8.10;;;15.50;96.90;;;;;;5094619;28;20433;-72
2023/06/09 01:23:15;;;;;;;8.77;7.87;;;15.50;97.10;;;;;;5094823;28;20440;-72
2023/06/09 01:25:46;;;;;;;9.27;7.80;;;15.50;97.30;;;;;;5094598;28;20891;-72
2023/06/09 01:28:18;;;;;;;8.83;7.43;;;15.50;97.40;;;;;;5094639;28;20510;-72
2023/06/09 01:30:46;;;;;;;8.43;7.50;;;15.40;97.10;;;;;;5093317;28;20436;-73
2023/06/09 01:33:17;;;;;;;12.80;8.27;;;15.40;97.10;;;;;;5094487;28;20992;-72
2023/06/09 01:35:46;;;;;;;10.00;9.00;;;15.30;97.60;;;;;;5094239;28;20448;-73
2023/06/09 01:38:14;;;;;;;12.10;8.80;;;15.30;98.00;;;;;;5094623;28;20436;-73
2023/06/09 01:40:44;;;;;;;11.40;8.87;;;15.30;98.20;;;;;;5094465;28;20860;-73
2023/06/09 01:43:11;;;;;;;12.17;8.90;;;15.30;98.00;;;;;;5094570;28;20845;-73
2023/06/09 01:45:38;;;;;;;9.83;7.47;;;15.20;98.40;;;;;;5094233;28;20462;-73
2023/06/09 01:48:16;;;;;;;10.50;8.43;;;15.20;98.40;;;;;;5094465;28;20451;-73
2023/06/09 01:50:54;;;;;;;8.60;7.70;;;15.10;98.40;;;;;;5093934;28;20491;-73
2023/06/09 01:53:26;;;;;;;7.57;6.77;;;15.10;98.40;;;;;;5094284;28;20444;-73
2023/06/09 01:56:03;;;;;;;9.80;8.23;;;15.10;98.00;;;;;;5094141;28;20468;-73
2023/06/09 01:58:35;;;;;;;10.70;6.63;;;15.00;97.90;;;;;;5094309;28;20437;-73
2023/06/09 02:01:03;;;;;;;8.13;6.80;;;15.00;97.90;;;;;;5093926;28;20490;-73
2023/06/09 02:03:32;;;;;;;9.03;8.13;;;15.00;97.50;;;;;;5093822;28;20473;-73
2023/06/09 02:06:00;;;;;;;8.17;6.53;;;14.90;97.70;;;;;;5093802;28;20486;-73
2023/06/09 02:08:29;;;;;;;8.00;7.20;;;14.90;98.00;;;;;;5094081;28;20443;-73
2023/06/09 02:10:58;;;;;;;9.03;7.80;;;14.80;97.90;;;;;;5093780;28;20502;-73
2023/06/09 02:13:25;;;;;;;7.60;6.07;;;14.80;97.70;;;;;;5093653;28;20444;-73
2023/06/09 02:15:52;;;;;;;9.87;7.70;;;14.90;98.20;;;;;;5093691;28;20479;-72
2023/06/09 02:18:21;;;;;;;9.20;7.50;;;14.80;97.90;;;;;;5093946;28;20437;-73
2023/06/09 02:20:48;;;;;;;11.20;8.23;;;14.80;97.80;;;;;;5093942;28;20445;-73
2023/06/09 02:23:16;;;;;;;8.63;7.83;;;14.70;97.90;;;;;;5093552;28;20441;-73
2023/06/09 02:25:43;;;;;;;9.00;7.13;;;14.70;98.30;;;;;;5093491;28;20450;-73
2023/06/09 02:28:12;;;;;;;9.80;7.90;;;14.70;98.70;;;;;;5093614;28;20444;-73
2023/06/09 02:30:39;;;;;;;13.00;7.93;;;14.70;98.40;;;;;;5093194;28;20945;-73
2023/06/09 02:33:07;;;;;;;7.77;6.97;;;14.60;98.10;;;;;;5093293;28;20436;-73
2023/06/09 02:35:34;;;;;;;8.93;8.03;;;14.60;98.30;;;;;;5093536;28;20524;-73
2023/06/09 02:38:05;;;;;;;10.17;8.40;;;14.50;98.30;;;;;;5093269;28;20447;-72
2023/06/09 02:40:32;;;;;;;8.57;7.50;;;14.50;98.30;;;;;;5092801;28;20436;-72
2023/06/09 02:43:00;;;;;;;9.77;7.60;;;14.50;98.30;;;;;;5093438;28;20451;-73
2023/06/09 02:45:29;;;;;;;8.53;7.63;;;14.50;98.30;;;;;;5093297;28;20436;-73
2023/06/09 02:47:56;;;;;;;7.87;7.10;;;14.50;98.20;;;;;;5093018;28;20480;-73
2023/06/09 02:50:24;;;;;;;7.87;7.07;;;14.40;98.50;;;;;;5093109;28;20442;-73
2023/06/09 02:52:51;;;;;;;8.90;7.97;;;14.40;98.60;;;;;;5092873;28;20986;-74
2023/06/09 02:55:20;;;;;;;8.20;6.70;;;14.40;98.90;;;;;;5093058;28;20460;-73
2023/06/09 02:57:47;;;;;;;8.60;7.70;;;14.30;98.80;;;;;;5092942;28;20445;-73
2023/06/09 03:00:15;;;;;;;10.70;8.67;;;14.30;98.70;;;;;;5092829;28;20440;-73
2023/06/09 03:02:45;;;;;;;10.67;8.97;;;14.20;99.00;;;;;;5092993;28;20452;-73
2023/06/09 03:05:13;;;;;;;10.03;7.90;;;14.10;99.50;;;;;;5092813;28;20445;-73
2023/06/09 03:07:40;;;;;;;9.57;8.50;;;14.10;99.50;;;;;;5092975;28;20484;-73
2023/06/09 03:10:08;;;;;;;8.60;7.73;;;14.10;99.80;;;;;;5092514;28;20505;-74
2023/06/09 03:12:35;;;;;;;7.63;6.83;;;14.10;99.70;;;;;;5092925;28;20439;-73
2023/06/09 03:15:02;;;;;;;8.03;7.23;;;14.10;99.80;;;;;;5092939;28;20492;-73
2023/06/09 03:17:29;;;;;;;8.17;6.97;;;14.00;99.20;;;;;;5092845;28;20519;-73
2023/06/09 03:19:58;;;;;;;9.40;8.07;;;14.00;99.00;;;;;;5092657;28;20491;-73
2023/06/09 03:22:27;;;;;;;8.40;7.47;;;14.00;99.30;;;;;;5092848;28;20443;-73
2023/06/09 03:24:54;;;;;;;8.17;6.80;;;14.00;99.40;;;;;;5093052;28;20547;-73
2023/06/09 03:27:24;;;;;;;9.27;7.37;;;14.00;98.70;;;;;;5092746;28;20503;-73
2023/06/09 03:29:51;;;;;;;8.83;7.93;;;13.90;98.50;;;;;;5092539;28;20443;-73
2023/06/09 03:32:18;;;;;;;11.63;7.40;;;13.90;98.60;;;;;;5092773;28;20435;-73
2023/06/09 03:34:45;;;;;;;11.37;6.50;;;13.80;98.90;;;;;;5092310;28;20506;-72
2023/06/09 03:37:14;;;;;;;8.33;7.00;;;13.80;99.00;;;;;;5092560;28;20436;-72
2023/06/09 03:39:41;;;;;;;8.00;7.20;;;13.80;99.00;;;;;;5092357;28;20443;-73
2023/06/09 03:42:09;;;;;;;10.73;8.60;;;13.80;99.10;;;;;;5092170;28;20454;-73
2023/06/09 03:44:35;;;;;;;7.90;7.10;;;13.80;99.30;;;;;;5092327;28;20498;-72
2023/06/09 03:47:03;;;;;;;8.37;7.47;;;13.80;99.70;;;;;;5092251;28;20533;-73
2023/06/09 03:49:30;;;;;;;8.40;7.43;;;13.80;99.80;;;;;;5092014;28;20949;-73
2023/06/09 03:51:57;;;;;;;7.60;6.90;;;13.90;99.20;;;;;;5092226;28;20930;-72
2023/06/09 03:54:26;;;;;;;8.33;6.50;;;13.80;98.70;;;;;;5095298;28;20479;-73
2023/06/09 03:56:53;;;;;;;9.87;8.37;;;13.90;98.70;;;;;;5096447;28;20444;-72
2023/06/09 03:59:20;;;;;;;11.33;7.60;;;13.90;98.80;;;;;;5096609;28;20432;-73
2023/06/09 04:01:48;;;;;;;8.27;6.43;;;13.90;98.90;;;;;;5096188;28;20517;-72
2023/06/09 04:04:16;;;;;;;9.07;6.90;;;13.90;98.80;;;;;;5096352;28;20539;-72
2023/06/09 04:06:45;;;;;;;7.80;7.00;;;13.90;99.00;;;;;;5096162;28;20849;-72
2023/06/09 04:09:12;;;;;;;9.97;8.03;;;14.00;99.20;;;;;;5096204;28;20435;-72
2023/06/09 04:11:41;;;;;;;9.93;8.47;;;14.10;99.40;;;;;;5096418;28;20497;-73
2023/06/09 04:14:08;;;;;;;8.67;7.60;;;14.10;99.20;;;;;;5093309;28;20793;-72
2023/06/09 04:16:36;;;;;;;8.07;7.27;;;14.10;98.80;;;;;;5092058;28;20939;-72
2023/06/09 04:19:03;;;;;;;8.90;7.73;;;14.10;98.80;;;;;;5094156;28;20444;-73
2023/06/09 04:21:30;;;;;;;9.00;7.63;;;14.20;99.10;;;;;;5093529;28;20500;-73
2023/06/09 04:23:57;;;;;;;10.27;9.30;;;14.10;99.70;;;;;;5093905;28;20968;-72
2023/06/09 04:26:24;;;;;;;7.40;6.70;;;14.20;99.90;;;;;;5094125;28;20911;-73
2023/06/09 04:28:53;;;;;;;8.70;7.77;;;14.20;99.70;;;;;;5094140;28;20463;-72
2023/06/09 04:31:23;;;;;;;8.80;7.90;;;14.20;99.50;;;;;;5094627;28;20448;-72
2023/06/09 04:33:51;;;;;;;8.33;7.53;;;14.20;99.30;;;;;;5089942;28;20436;-73
2023/06/09 04:36:18;;;;;;;8.97;8.03;;;14.20;99.30;;;;;;5094003;28;20474;-72
2023/06/09 04:38:46;;;;;;;7.63;6.83;;;14.20;99.70;;;;;;5094120;28;20444;-73
2023/06/09 04:41:14;;;;;;;13.97;9.23;;;14.20;99.80;;;;;;5075841;28;20440;-73
2023/06/09 04:43:41;;;;;;;11.63;7.47;;;14.30;99.90;;;;;;5091115;28;20498;-72
2023/06/09 04:46:12;;;;;;;11.03;7.33;;;14.30;99.90;;;;;;5092445;28;20467;-72
2023/06/09 04:48:41;;;;;;;8.53;7.60;;;14.40;99.90;;;;;;5086891;28;20478;-73
2023/06/09 04:51:10;;;;;;;9.10;7.60;;;14.40;99.90;;;;;;5088855;28;20438;-72
2023/06/09 04:53:37;;;;;;;8.90;8.00;;;14.50;99.90;;;;;;5084535;28;20761;-72
2023/06/09 04:56:06;;;;;;;9.90;7.80;;;14.60;99.90;;;;;;5094745;28;20860;-73
2023/06/09 04:58:33;;;;;;;8.90;8.00;;;14.70;99.90;;;;;;5090183;28;20497;-72
2023/06/09 05:01:00;;;;;;;9.47;8.57;;;14.70;99.90;;;;;;5094176;28;20427;-73
2023/06/09 05:03:28;;;;;;;9.73;8.73;;;14.80;99.90;;;;;;5094469;28;20978;-72
2023/06/09 05:05:55;;;;;;;9.17;8.23;;;14.90;99.90;;;;;;5090694;28;20574;-73
2023/06/09 05:08:25;;;;;;;9.87;8.83;;;15.00;99.90;;;;;;5090085;28;20569;-72
2023/06/09 05:10:53;;;;;;;11.77;8.07;;;15.10;99.90;;;;;;5078594;28;20446;-73
2023/06/09 05:13:22;;;;;;;9.97;8.13;;;15.20;99.90;;;;;;5091381;28;20509;-73
2023/06/09 05:15:49;;;;;;;8.10;7.30;;;15.20;99.90;;;;;;5090532;28;20479;-73
2023/06/09 05:18:19;;;;;;;9.03;8.13;;;15.40;99.90;;;;;;5092393;28;20439;-72
2023/06/09 05:20:47;;;;;;;8.80;7.90;;;15.40;99.90;;;;;;5089619;28;20465;-73
2023/06/09 05:23:16;;;;;;;13.20;8.77;;;15.50;99.90;;;;;;5092293;28;20517;-73
2023/06/09 05:25:43;;;;;;;10.07;8.97;;;15.60;99.80;;;;;;5086990;28;20448;-73
2023/06/09 05:28:10;;;;;;;8.93;8.03;;;15.70;99.90;;;;;;5094106;28;20534;-73
2023/06/09 05:30:37;;;;;;;10.40;8.60;;;15.70;99.60;;;;;;5093090;28;20446;-72
2023/06/09 05:33:04;;;;;;;10.73;9.13;;;15.80;99.50;;;;;;5081074;28;20436;-73
2023/06/09 05:35:32;;;;;;;11.00;9.70;;;15.90;99.60;;;;;;5092136;28;20437;-73
2023/06/09 05:38:00;;;;;;;9.10;8.20;;;16.00;99.00;;;;;;5089685;28;20512;-72
2023/06/09 05:40:27;;;;;;;9.10;8.03;;;16.10;99.20;;;;;;5094879;28;20441;-72
2023/06/09 05:42:54;;;;;;;10.10;8.47;;;16.20;99.20;;;;;;5091279;28;20444;-73
2023/06/09 05:45:21;;;;;;;10.43;8.90;;;16.30;99.40;;;;;;5090831;28;20444;-72
2023/06/09 05:47:50;;;;;;;9.70;8.40;;;16.40;99.40;;;;;;5079525;28;20493;-72
2023/06/09 05:50:17;;;;;;;9.63;7.60;;;16.50;99.10;;;;;;5092582;28;20448;-73
2023/06/09 05:52:45;;;;;;;8.90;8.00;;;16.60;99.00;;;;;;5087864;28;20842;-73
2023/06/09 05:55:16;;;;;;;8.00;7.17;;;16.70;98.70;;;;;;5090923;28;20463;-72
2023/06/09 05:57:44;;;;;;;9.47;7.93;;;16.80;98.00;;;;;;5092681;28;20470;-73
2023/06/09 06:00:12;;;;;;;12.63;9.43;;;16.90;97.40;;;;;;5096597;28;20445;-73
2023/06/09 06:02:40;;;;;;;8.67;7.30;;;17.00;97.50;;;;;;5091860;28;21011;-73
2023/06/09 06:05:10;;;;;;;8.77;7.40;;;17.10;96.50;;;;;;5092640;28;20441;-73
2023/06/09 06:07:39;;;;;;;7.77;6.40;;;17.10;95.90;;;;;;5090776;28;20487;-73
2023/06/09 06:10:07;;;;;;;8.37;7.57;;;17.10;95.80;;;;;;5098695;28;20877;-73
2023/06/09 06:12:36;;;;;;;7.13;6.43;;;17.20;95.80;;;;;;5094042;28;20449;-73
2023/06/09 06:15:03;;;;;;;8.23;6.47;;;17.30;95.70;;;;;;5091196;28;20437;-72
2023/06/09 06:17:30;;;;;;;6.57;5.80;;;17.40;95.20;;;;;;5088987;28;20443;-73
2023/06/09 06:19:58;;;;;;;6.60;5.90;;;17.50;95.00;;;;;;5090937;28;20467;-72
2023/06/09 06:22:25;;;;;;;9.47;6.10;;;17.60;95.10;;;;;;5094264;28;20441;-73
2023/06/09 06:24:52;;;;;;;7.33;5.47;;;17.70;94.90;;;;;;5087868;28;20911;-73
2023/06/09 06:27:19;;;;;;;8.23;5.03;;;17.80;94.70;;;;;;5093580;28;20508;-73
2023/06/09 06:29:48;;;;;;;6.40;5.57;;;17.90;94.50;;;;;;5092407;28;20442;-73
2023/06/09 06:32:15;;;;;;;7.27;5.73;;;18.10;94.50;;;;;;5091159;28;20529;-73
2023/06/09 06:34:42;;;;;;;6.83;5.37;;;18.20;93.80;;;;;;5090644;28;20469;-73
2023/06/09 06:37:10;;;;;;;8.00;5.57;;;18.30;93.90;;;;;;5090563;28;20916;-73
2023/06/09 06:39:36;;;;;;;7.90;6.33;;;18.40;93.30;;;;;;5090468;28;20517;-73
2023/06/09 06:42:05;;;;;;;6.63;5.53;;;18.50;93.20;;;;;;5088926;28;20427;-73
2023/06/09 06:44:33;;;;;;;6.93;5.30;;;18.70;93.10;;;;;;5091623;28;20467;-73
2023/06/09 06:47:01;;;;;;;6.50;5.30;;;18.80;92.70;;;;;;5094285;28;20521;-73
2023/06/09 06:49:28;;;;;;;6.73;5.37;;;18.90;92.70;;;;;;5092147;28;20444;-73
2023/06/09 06:51:55;;;;;;;5.70;5.10;;;19.00;92.20;;;;;;5090579;28;20445;-73
2023/06/09 06:54:22;;;;;;;5.47;4.50;;;19.10;92.10;;;;;;5101185;28;20465;-73
2023/06/09 06:56:50;;;;;;;8.37;5.00;;;19.30;91.80;;;;;;5088188;28;20485;-74
2023/06/09 06:59:17;;;;;;;6.90;5.70;;;19.40;90.70;;;;;;5091044;28;20462;-73
2023/06/09 07:01:44;;;;;;;5.47;4.27;;;19.40;90.30;;;;;;5091691;28;20443;-74
2023/06/09 07:04:12;;;;;;;5.67;4.53;;;19.50;88.90;;;;;;5090695;28;20940;-73
2023/06/09 07:06:39;;;;;;;5.10;4.03;;;19.60;88.20;;;;;;5091402;28;20449;-73
2023/06/09 07:09:06;;;;;;;6.33;4.67;;;19.70;85.50;;;;;;5091353;28;20478;-73
2023/06/09 07:11:35;;;;;;;4.97;3.90;;;19.70;86.30;;;;;;5089979;28;20514;-74
2023/06/09 07:14:04;;;;;;;7.13;4.30;;;19.80;86.20;;;;;;5095261;28;20551;-74
2023/06/09 07:16:32;;;;;;;4.33;3.53;;;19.90;85.90;;;;;;5090008;28;20443;-73
2023/06/09 07:18:59;;;;;;;7.00;4.60;;;20.00;84.20;;;;;;5089851;28;20833;-73
2023/06/09 07:21:29;;;;;;;4.77;3.80;;;20.10;84.70;;;;;;5095081;28;20434;-73
2023/06/09 07:23:56;;;;;;;5.90;3.70;;;20.20;85.00;;;;;;5092805;28;20441;-73
2023/06/09 07:26:24;;;;;;;5.67;4.47;;;20.30;83.50;;;;;;5090498;28;20476;-73
2023/06/09 07:28:51;;;;;;;7.03;3.73;;;20.40;80.50;;;;;;5092268;28;20470;-73
2023/06/09 07:31:18;;;;;;;5.60;3.60;;;20.40;80.70;;;;;;5090013;28;20441;-73
2023/06/09 07:33:45;;;;;;;4.83;3.60;;;20.50;81.80;;;;;;5091756;28;20446;-73
2023/06/09 07:36:13;;;;;;;5.17;3.83;;;20.70;83.10;;;;;;5093061;28;20457;-74
2023/06/09 07:38:43;;;;;;;7.70;4.03;;;20.90;82.40;;;;;;5093381;28;20450;-73
2023/06/09 07:41:10;;;;;;;5.40;4.47;;;21.00;81.80;;;;;;5089916;28;20437;-73
2023/06/09 07:43:37;;;;;;;5.90;4.13;;;21.20;82.30;;;;;;5091914;28;20942;-74
2023/06/09 07:46:04;;;;;;;4.80;4.07;;;21.30;82.60;;;;;;5093123;28;20439;-74
2023/06/09 07:48:31;;;;;;;5.50;4.33;;;21.50;81.10;;;;;;5090657;28;20530;-74
2023/06/09 07:50:58;;;;;;;6.70;4.60;;;21.60;78.80;;;;;;5090379;28;20477;-74
2023/06/09 07:53:26;;;;;;;7.67;4.60;;;21.70;78.40;;;;;;5092361;28;20921;-74
2023/06/09 07:55:57;;;;;;;4.77;3.90;;;21.80;78.50;;;;;;5088356;28;20486;-73
2023/06/09 07:58:24;;;;;;;8.00;5.47;;;21.90;80.10;;;;;;5089816;28;20443;-74
2023/06/09 08:00:51;;;;;;;5.73;5.13;;;22.20;81.60;;;;;;5089369;28;20434;-73
2023/06/09 08:03:18;;;;;;;7.93;5.67;;;22.30;82.40;;;;;;5090799;28;20498;-73
2023/06/09 08:05:45;;;;;;;6.03;5.43;;;22.50;81.90;;;;;;5089550;28;20442;-73
2023/06/09 08:08:12;;;;;;;5.77;5.17;;;22.60;79.20;;;;;;5092218;28;20481;-73
2023/06/09 08:10:39;;;;;;;6.40;5.47;;;22.80;79.60;;;;;;5090620;28;20462;-73
2023/06/09 08:13:14;;;;;;;5.83;4.50;;;22.90;80.70;;;;;;5090747;28;20507;-74
2023/06/09 08:15:41;;;;;;;6.87;6.13;;;23.10;81.70;;;;;;5087512;28;20473;-74
2023/06/09 08:18:09;;;;;;;8.00;5.93;;;23.20;78.70;;;;;;5087989;28;20453;-74
2023/06/09 08:20:36;;;;;;;6.07;5.47;;;23.30;79.30;;;;;;5090048;28;20441;-74
2023/06/09 08:23:03;;;;;;;7.00;6.23;;;23.50;80.20;;;;;;5088850;28;20535;-73
2023/06/09 08:25:30;;;;;;;8.13;6.67;;;23.70;80.70;;;;;;5089134;28;20950;-74
2023/06/09 08:27:57;;;;;;;6.50;5.87;;;23.80;77.60;;;;;;5092451;28;20561;-74
2023/06/09 08:30:25;;;;;;;5.80;4.97;;;24.00;77.20;;;;;;5090595;28;20790;-73
2023/06/09 08:32:52;;;;;;;7.73;6.37;;;24.00;75.40;;;;;;5090411;28;20948;-74
2023/06/09 08:35:20;;;;;;;6.27;4.90;;;24.10;74.30;;;;;;5091099;28;20495;-73
2023/06/09 08:37:48;;;;;;;7.03;6.33;;;24.10;72.10;;;;;;5092625;28;20448;-75
2023/06/09 08:40:15;;;;;;;7.03;6.20;;;24.20;72.20;;;;;;5091709;28;20442;-74
2023/06/09 08:42:46;;;;;;;6.33;5.63;;;24.20;72.80;;;;;;5094424;28;20437;-74
2023/06/09 08:45:18;;;;;;;6.20;5.13;;;24.30;71.60;;;;;;5092635;28;20453;-73
2023/06/09 08:47:48;;;;;;;6.53;5.87;;;24.40;72.50;;;;;;5093752;28;20441;-74
2023/06/09 08:50:18;;;;;;;5.70;5.20;;;24.60;71.70;;;;;;5095942;28;20821;-74
2023/06/09 08:52:46;;;;;;;6.23;5.60;;;24.70;70.60;;;;;;5094488;28;20514;-73
2023/06/09 08:55:15;;;;;;;5.97;5.37;;;24.80;70.50;;;;;;5091797;28;20470;-73
2023/06/09 08:57:43;;;;;;;6.43;5.70;;;24.80;69.30;;;;;;5094550;28;20809;-74
2023/06/09 09:00:11;;;;;;;8.03;5.87;;;24.90;69.50;;;;;;5095312;28;20434;-74
2023/06/09 09:02:39;;;;;;;5.77;5.20;;;25.00;68.60;;;;;;5095125;28;20924;-74
2023/06/09 09:05:09;;;;;;;6.60;6.00;;;25.10;68.00;;;;;;5094894;28;20442;-74
2023/06/09 09:07:37;;;;;;;6.53;5.87;;;25.20;68.80;;;;;;5095171;28;20509;-73
2023/06/09 09:10:04;;;;;;;6.13;5.50;;;25.30;67.10;;;;;;5089851;28;20485;-74
2023/06/09 09:12:47;;;;;;;6.70;5.67;;;25.40;63.70;;;;;;5094200;28;20504;-75
2023/06/09 09:15:14;;;;;;;6.20;5.53;;;25.40;60.10;;;;;;5091645;28;20526;-74
2023/06/09 09:17:41;;;;;;;6.10;5.50;;;25.40;62.60;;;;;;5091690;28;20437;-74
2023/06/09 09:20:10;;;;;;;6.27;5.67;;;25.50;63.50;;;;;;5091899;28;20445;-74
2023/06/09 09:22:47;;;;;;;6.63;5.73;;;25.50;62.80;;;;;;5091392;28;20846;-74
2023/06/09 09:25:26;;;;;;;7.70;5.77;;;25.60;63.20;;;;;;5094201;28;20461;-74
2023/06/09 09:28:04;;;;;;;7.20;5.80;;;25.80;64.80;;;;;;5091620;28;20452;-74
2023/06/09 09:30:48;;;;;;;10.53;5.60;;;25.90;64.60;;;;;;5093608;28;20781;-73
2023/06/09 09:33:18;;;;;;;6.27;5.37;;;26.10;63.20;;;;;;5093068;28;20462;-74
2023/06/09 09:35:49;;;;;;;6.13;5.07;;;26.20;61.90;;;;;;5092452;28;20446;-73
2023/06/09 09:38:19;;;;;;;6.10;5.13;;;26.20;62.30;;;;;;5094904;28;20456;-73
2023/06/09 09:40:48;;;;;;;7.40;6.03;;;26.40;62.10;;;;;;5089491;28;20463;-73
2023/06/09 09:43:16;;;;;;;8.43;5.80;;;26.60;60.00;;;;;;5093408;28;20449;-73
2023/06/09 09:45:45;;;;;;;5.33;4.80;;;26.60;59.10;;;;;;5091852;28;20978;-73
2023/06/09 09:48:14;;;;;;;7.63;6.10;;;26.80;59.70;;;;;;5091404;28;20537;-73
2023/06/09 09:50:42;;;;;;;6.60;5.67;;;26.80;59.70;;;;;;5095250;28;20474;-74
2023/06/09 09:53:11;;;;;;;6.20;5.60;;;27.00;59.70;;;;;;5094072;28;20444;-73
2023/06/09 09:55:41;;;;;;;6.87;5.50;;;27.10;59.90;;;;;;5091238;28;20474;-73
2023/06/09 09:58:10;;;;;;;5.80;5.20;;;27.20;57.60;;;;;;5095150;28;21322;-73
2023/06/09 10:00:39;;;;;;;5.97;5.37;;;27.20;55.80;;;;;;5091219;28;20452;-74
2023/06/09 10:03:09;;;;;;;8.50;6.13;;;27.40;56.90;;;;;;5093717;28;20976;-73
2023/06/09 10:05:43;;;;;;;9.30;5.30;;;27.50;56.90;;;;;;5089988;28;20957;-73
2023/06/09 10:08:16;;;;;;;6.20;5.27;;;27.60;57.00;;;;;;5089798;28;20467;-73
2023/06/09 10:10:44;;;;;;;6.30;5.30;;;27.70;55.40;;;;;;5091052;28;20437;-74
2023/06/09 10:13:12;;;;;;;6.90;5.00;;;27.80;55.00;;;;;;5091722;28;20447;-74
2023/06/09 10:15:44;;;;;;;5.80;4.50;;;27.90;52.80;;;;;;5088704;28;20445;-74
2023/06/09 10:18:13;;;;;;;5.93;5.13;;;27.90;51.80;;;;;;5092959;28;20921;-74
2023/06/09 10:20:42;;;;;;;9.43;5.20;;;28.00;51.10;;;;;;5090449;28;20478;-73
2023/06/09 10:23:10;;;;;;;5.27;4.70;;;28.10;51.50;;;;;;5087776;28;20515;-73
2023/06/09 10:25:38;;;;;;;5.03;4.10;;;28.10;51.70;;;;;;5090996;28;20499;-74
2023/06/09 10:28:07;;;;;;;9.57;5.00;;;28.20;52.20;;;;;;5090541;28;20437;-73
2023/06/09 10:30:36;;;;;;;4.63;4.20;;;28.30;51.50;;;;;;5088385;28;20931;-73
2023/06/09 10:33:09;;;;;;;6.60;4.67;;;28.50;50.40;;;;;;5093626;28;20840;-74
2023/06/09 10:35:39;;;;;;;8.10;4.60;;;28.60;48.70;;;;;;5093138;28;20438;-75
2023/06/09 10:38:28;;;;;;;5.47;4.57;;;28.70;47.70;;;;;;5094214;28;20454;-74
2023/06/09 10:41:00;;;;;;;5.23;4.60;;;28.60;47.40;;;;;;5091826;28;20470;-73
2023/06/09 10:43:41;;;;;;;5.97;5.20;;;28.60;47.00;;;;;;5090770;28;20465;-74
2023/06/09 10:46:12;;;;;;;4.60;4.00;;;28.60;46.60;;;;;;5091345;28;20476;-74
2023/06/09 10:48:45;;;;;;;5.50;4.40;;;28.60;46.10;;;;;;5092249;28;20491;-73
2023/06/09 10:51:41;;;;;;;4.80;4.30;;;28.60;46.00;;;;;;5092108;28;20450;-75
2023/06/09 10:54:25;;;;;;;4.80;4.00;;;28.70;46.60;;;;;;5092687;28;20450;-73
2023/06/09 10:56:54;;;;;;;4.77;4.07;;;28.60;44.30;;;;;;5088689;28;20966;-74
2023/06/09 11:00:04;;;;;;;6.30;4.03;;;28.60;46.00;;;;;;5090512;28;20446;-73
2023/06/09 11:02:31;;;;;;;6.80;4.00;;;28.70;45.00;;;;;;5089527;28;20590;-73
2023/06/09 11:04:58;;;;;;;4.43;3.53;;;28.70;44.40;;;;;;5090312;28;20445;-73
2023/06/09 11:07:29;;;;;;;4.90;3.27;;;28.70;44.40;;;;;;5093604;28;20441;-74
2023/06/09 11:10:35;;;;;;;5.80;3.80;;;28.80;44.00;;;;;;5091396;28;21593;-74
2023/06/09 11:13:19;;;;;;;3.93;3.50;;;28.80;41.30;;;;;;5093705;28;20545;-74
2023/06/09 11:16:02;;;;;;;4.10;3.40;;;28.90;45.30;;;;;;5090319;28;20480;-75
2023/06/09 11:18:30;;;;;;;3.57;2.83;;;28.90;42.80;;;;;;5088374;28;20485;-73
2023/06/09 11:21:16;;;;;;;5.07;3.93;;;29.00;42.10;;;;;;5090663;28;20437;-72
2023/06/09 11:24:03;;;;;;;4.33;3.20;;;29.00;41.70;;;;;;5093095;28;20449;-74
2023/06/09 11:26:32;;;;;;;4.50;3.80;;;29.10;42.60;;;;;;5089619;28;20465;-74
2023/06/09 11:29:03;;;;;;;4.80;3.80;;;29.10;42.50;;;;;;5095291;28;20482;-74
2023/06/09 11:31:47;;;;;;;5.30;4.40;;;29.20;42.50;;;;;;5089834;28;20454;-73
2023/06/09 11:34:51;;;;;;;4.17;3.70;;;29.20;42.80;;;;;;5089635;28;20471;-75
2023/06/09 11:37:20;;;;;;;3.93;3.40;;;29.20;40.20;;;;;;5089894;28;20438;-74
2023/06/09 11:39:47;;;;;;;5.87;3.77;;;29.10;40.10;;;;;;5098849;28;20451;-75
2023/06/09 11:42:17;;;;;;;4.33;3.23;;;29.00;40.40;;;;;;5090839;28;20466;-75
2023/06/09 11:44:45;;;;;;;4.83;3.23;;;28.90;40.40;;;;;;5091235;28;20450;-74
2023/06/09 11:47:26;;;;;;;4.80;3.13;;;28.80;39.80;;;;;;5087546;28;20830;-74
2023/06/09 11:50:00;;;;;;;4.73;3.50;;;28.70;40.10;;;;;;5088496;28;20569;-73
2023/06/09 11:52:27;;;;;;;4.70;3.97;;;28.80;41.50;;;;;;5074331;28;20448;-74
2023/06/09 11:54:54;;;;;;;4.93;3.43;;;28.80;40.30;;;;;;5086048;28;20470;-74
2023/06/09 11:57:23;;;;;;;3.70;3.30;;;28.80;39.50;;;;;;5093589;28;20965;-74
2023/06/09 11:59:52;;;;;;;4.43;3.40;;;28.80;40.10;;;;;;5093200;28;20445;-74
2023/06/09 12:02:20;;;;;;;4.20;3.20;;;28.80;38.70;;;;;;5092383;28;20450;-74
2023/06/09 12:04:49;;;;;;;4.00;3.37;;;28.80;38.30;;;;;;5090951;28;20950;-74
2023/06/09 12:07:18;;;;;;;4.73;2.80;;;28.80;38.70;;;;;;5097131;28;20811;-75
2023/06/09 12:09:45;;;;;;;4.10;3.00;;;28.80;38.70;;;;;;5089656;28;20525;-75
2023/06/09 12:12:12;;;;;;;4.40;3.30;;;28.70;39.20;;;;;;5089175;28;20438;-74
2023/06/09 12:14:39;;;;;;;4.43;3.40;;;28.70;39.20;;;;;;5084507;28;21006;-74
2023/06/09 12:17:09;;;;;;;4.73;3.40;;;28.80;38.50;;;;;;5083598;28;20532;-74
2023/06/09 12:19:36;;;;;;;3.67;2.90;;;28.80;39.00;;;;;;5087690;28;20884;-74
2023/06/09 12:22:04;;;;;;;3.63;2.80;;;28.80;37.60;;;;;;5072749;28;20499;-75
2023/06/09 12:24:32;;;;;;;5.50;3.20;;;28.80;37.80;;;;;;5063203;28;20926;-75
2023/06/09 12:27:11;;;;;;;3.80;3.00;;;28.80;37.50;;;;;;5067063;28;20439;-74
2023/06/09 12:29:38;;;;;;;4.57;3.03;;;28.80;36.30;;;;;;5067175;28;20541;-73
2023/06/09 12:32:10;;;;;;;5.60;3.60;;;28.80;37.00;;;;;;5059044;28;20439;-74
2023/06/09 12:34:37;;;;;;;3.40;3.00;;;28.70;37.00;;;;;;5072303;28;20453;-74
2023/06/09 12:37:07;;;;;;;4.17;3.37;;;28.60;36.50;;;;;;5065116;28;20853;-74
2023/06/09 12:39:35;;;;;;;4.43;3.53;;;28.60;37.50;;;;;;5063116;28;20435;-75
2023/06/09 12:42:12;;;;;;;4.67;2.67;;;28.60;38.00;;;;;;5070745;28;20460;-75
2023/06/09 12:44:39;;;;;;;4.23;3.17;;;28.50;37.00;;;;;;5064604;28;20508;-75
2023/06/09 12:47:16;;;;;;;3.80;2.93;;;28.40;36.60;;;;;;5062441;28;20447;-74
2023/06/09 12:49:46;;;;;;;5.10;3.33;;;28.40;37.20;;;;;;5069216;28;20991;-74
2023/06/09 12:52:14;;;;;;;5.27;3.60;;;28.40;36.90;;;;;;5063652;28;20438;-75
2023/06/09 12:54:43;;;;;;;3.57;2.83;;;28.40;37.60;;;;;;5066299;28;20570;-74
2023/06/09 12:57:10;;;;;;;3.93;3.50;;;28.40;37.40;;;;;;5066967;28;20488;-75